Time;durP1;ratioP1;P1;durP2;ratioP2;P2;SDS_P1;SDS_P2;PMS_P1;PMS_P2;Temp;Humidity;BMP_temperature;BMP_pressure;BME280_temperature;BME280_humidity;BME280_pressure;Samples;Min_cycle;Max_cycle;Signal;HPM_P1;HPM_P2
2022/03/25 00:00:30;;;;;;;138.20;64.15;;;;;;;3.27;100.00;102457.88;4809056;29;20110;-80
2022/03/25 00:02:56;;;;;;;149.82;69.15;;;;;;;3.42;100.00;102463.06;4826063;29;20062;-80
2022/03/25 00:05:21;;;;;;;159.52;67.72;;;;;;;3.48;100.00;102463.47;4840057;29;20077;-80
2022/03/25 00:07:47;;;;;;;167.98;67.78;;;;;;;3.54;100.00;102459.47;4796009;29;20042;-79
2022/03/25 00:10:12;;;;;;;169.40;71.65;;;;;;;3.58;100.00;102442.34;4810025;29;20099;-80
2022/03/25 00:12:38;;;;;;;164.93;69.40;;;;;;;3.65;100.00;102443.59;4795194;29;20119;-80
2022/03/25 00:15:04;;;;;;;169.13;73.50;;;;;;;3.79;100.00;102457.69;4811037;29;20046;-80
2022/03/25 00:17:29;;;;;;;182.35;76.50;;;;;;;3.74;100.00;102444.69;4809893;29;20125;-80
2022/03/25 00:19:54;;;;;;;188.02;77.45;;;;;;;3.90;100.00;102461.22;4827411;29;20113;-80
2022/03/25 00:22:20;;;;;;;200.60;78.38;;;;;;;3.89;100.00;102461.34;4818418;29;20114;-80
2022/03/25 00:24:45;;;;;;;174.10;74.85;;;;;;;3.98;100.00;102469.50;4809016;29;20031;-80
2022/03/25 00:27:11;;;;;;;198.15;79.80;;;;;;;3.91;100.00;102460.28;4799644;29;20046;-79
2022/03/25 00:29:37;;;;;;;198.15;78.45;;;;;;;4.05;100.00;102469.91;4822783;29;20027;-79
2022/03/25 00:32:03;;;;;;;181.20;76.57;;;;;;;3.83;100.00;102427.19;4822855;29;20026;-80
2022/03/25 00:34:29;;;;;;;182.57;73.05;;;;;;;3.86;100.00;102435.78;4825787;29;20522;-80
2022/03/25 00:36:54;;;;;;;190.85;77.10;;;;;;;4.03;100.00;102460.31;4808262;29;20389;-79
2022/03/25 00:39:20;;;;;;;185.38;73.05;;;;;;;4.00;100.00;102464.03;4791966;29;20055;-80
2022/03/25 00:41:45;;;;;;;165.52;71.22;;;;;;;3.77;100.00;102431.16;4808713;29;20035;-80
2022/03/25 00:44:11;;;;;;;175.52;71.40;;;;;;;3.83;100.00;102456.47;4794006;29;20121;-79
2022/03/25 00:46:36;;;;;;;163.63;67.68;;;;;;;3.78;100.00;102451.50;4807273;29;20035;-80
2022/03/25 00:49:04;;;;;;;151.40;64.60;;;;;;;3.74;100.00;102464.22;4833128;29;20365;-80
2022/03/25 00:51:30;;;;;;;164.23;70.07;;;;;;;3.63;100.00;102436.66;4840938;29;20050;-80
2022/03/25 00:53:56;;;;;;;185.43;67.65;;;;;;;3.85;100.00;102462.56;4827569;29;20373;-80
2022/03/25 00:56:22;;;;;;;163.40;66.55;;;;;;;3.76;100.00;102462.25;4828550;29;20034;-80
2022/03/25 00:58:47;;;;;;;159.13;65.20;;;;;;;3.66;100.00;102457.75;4826551;29;20142;-80
2022/03/25 01:01:12;;;;;;;146.63;62.25;;;;;;;3.74;100.00;102458.00;4826362;29;20085;-80
2022/03/25 01:03:38;;;;;;;133.00;59.03;;;;;;;3.76;100.00;102432.97;4809759;29;20030;-80
2022/03/25 01:06:03;;;;;;;132.40;59.80;;;;;;;4.08;100.00;102450.19;4795569;29;20048;-80
2022/03/25 01:08:29;;;;;;;134.23;58.38;;;;;;;4.19;100.00;102455.53;4807362;29;20074;-80
2022/03/25 01:10:55;;;;;;;140.85;59.58;;;;;;;4.30;100.00;102457.34;4801341;29;20042;-80
2022/03/25 01:13:20;;;;;;;139.95;60.22;;;;;;;4.38;100.00;102445.16;4845362;29;20109;-80
2022/03/25 01:15:46;;;;;;;131.60;58.47;;;;;;;4.35;100.00;102448.06;4842670;29;20080;-80
2022/03/25 01:18:11;;;;;;;137.52;58.33;;;;;;;4.34;100.00;102432.16;4809373;29;20035;-80
2022/03/25 01:20:37;;;;;;;140.00;59.15;;;;;;;4.33;100.00;102425.16;4777046;29;20031;-80
2022/03/25 01:23:02;;;;;;;137.15;58.33;;;;;;;4.60;100.00;102439.03;4795111;29;20117;-80
2022/03/25 01:25:28;;;;;;;133.13;59.88;;;;;;;4.53;100.00;102410.28;4811053;29;20038;-80
2022/03/25 01:27:55;;;;;;;137.85;62.17;;;;;;;4.77;100.00;102428.81;4825176;29;20035;-79
2022/03/25 01:30:20;;;;;;;127.43;60.70;;;;;;;4.76;100.00;102405.78;4834438;29;20049;-80
2022/03/25 01:32:45;;;;;;;137.25;62.35;;;;;;;4.74;100.00;102397.94;4794654;29;20038;-80
2022/03/25 01:35:12;;;;;;;143.73;61.90;;;;;;;4.97;100.00;102425.44;4832438;29;20026;-80
2022/03/25 01:37:38;;;;;;;142.63;63.55;;;;;;;5.08;100.00;102429.91;4844324;29;20042;-80
2022/03/25 01:40:09;;;;;;;144.38;65.72;;;;;;;5.09;100.00;102428.91;4826792;29;20133;-80
2022/03/25 01:42:37;;;;;;;144.48;66.22;;;;;;;5.13;100.00;102417.03;4844388;29;20041;-80
2022/03/25 01:45:05;;;;;;;154.52;69.97;;;;;;;5.27;100.00;102438.13;4825226;29;20056;-80
2022/03/25 01:47:32;;;;;;;155.02;69.55;;;;;;;5.21;100.00;102398.59;4828267;29;20041;-80
2022/03/25 01:49:59;;;;;;;141.02;69.88;;;;;;;5.51;100.00;102435.28;4825101;29;20137;-79
2022/03/25 01:52:25;;;;;;;153.25;72.88;;;;;;;5.54;100.00;102429.69;4826157;29;20109;-80
2022/03/25 01:54:51;;;;;;;173.30;74.82;;;;;;;5.57;100.00;102429.44;4809719;29;20125;-80
2022/03/25 01:57:21;;;;;;;160.57;72.45;;;;;;;5.53;100.00;102422.66;4826043;29;20445;-80
2022/03/25 01:59:46;;;;;;;148.52;70.63;;;;;;;5.48;100.00;102418.66;4809893;29;20030;-80
2022/03/25 02:02:11;;;;;;;156.90;69.95;;;;;;;5.53;100.00;102433.34;4813416;29;20402;-80
2022/03/25 02:04:37;;;;;;;149.20;71.88;;;;;;;5.58;100.00;102423.09;4806175;29;20058;-80
2022/03/25 02:07:03;;;;;;;150.85;71.97;;;;;;;5.36;100.00;102375.13;4809584;29;20113;-80
2022/03/25 02:09:28;;;;;;;160.10;73.20;;;;;;;5.64;100.00;102419.94;4808872;29;20031;-80
2022/03/25 02:11:55;;;;;;;149.30;72.05;;;;;;;5.65;100.00;102413.59;4806695;29;20038;-80
2022/03/25 02:14:22;;;;;;;166.45;72.38;;;;;;;5.43;100.00;102392.34;4842848;29;20041;-80
2022/03/25 02:16:49;;;;;;;153.98;72.85;;;;;;;5.52;100.00;102398.72;4842960;29;20465;-80
2022/03/25 02:19:18;;;;;;;158.07;73.55;;;;;;;5.27;100.00;102347.38;4826457;29;20426;-80
2022/03/25 02:21:45;;;;;;;153.30;73.88;;;;;;;5.51;100.00;102389.88;4809595;29;20724;-80
2022/03/25 02:24:12;;;;;;;158.30;73.25;;;;;;;5.65;100.00;102397.59;4805381;29;20357;-80
2022/03/25 02:26:39;;;;;;;153.55;75.35;;;;;;;5.65;100.00;102402.91;4807664;29;20034;-80
2022/03/25 02:29:05;;;;;;;147.13;71.32;;;;;;;5.65;100.00;102410.94;4805943;29;20026;-80
2022/03/25 02:31:31;;;;;;;146.30;71.70;;;;;;;5.68;100.00;102409.84;4800642;29;20128;-80
2022/03/25 02:34:00;;;;;;;154.40;73.97;;;;;;;5.60;100.00;102402.47;4809009;29;20488;-80
2022/03/25 02:36:25;;;;;;;160.52;76.00;;;;;;;5.46;100.00;102389.41;4805055;29;20034;-80
2022/03/25 02:38:51;;;;;;;158.15;75.35;;;;;;;5.56;100.00;102410.84;4814925;29;20574;-80
2022/03/25 02:41:16;;;;;;;167.02;76.43;;;;;;;5.45;100.00;102403.72;4807628;29;20037;-80
2022/03/25 02:43:42;;;;;;;165.00;75.65;;;;;;;5.41;100.00;102410.31;4823834;29;20035;-80
2022/03/25 02:46:08;;;;;;;167.43;76.75;;;;;;;5.29;100.00;102398.78;4809068;29;20110;-80
2022/03/25 02:48:35;;;;;;;170.90;75.85;;;;;;;5.24;100.00;102400.16;4844776;29;20040;-80
2022/03/25 02:51:00;;;;;;;161.85;74.65;;;;;;;5.21;100.00;102397.75;4830588;29;20127;-80
2022/03/25 02:53:27;;;;;;;169.52;73.28;;;;;;;5.21;100.00;102406.59;4804024;29;20034;-80
2022/03/25 02:55:53;;;;;;;165.57;75.35;;;;;;;5.04;100.00;102389.28;4838733;29;20007;-79
2022/03/25 02:58:20;;;;;;;165.77;74.55;;;;;;;5.10;100.00;102407.47;4814927;29;20186;-79
2022/03/25 03:00:45;;;;;;;161.98;73.00;;;;;;;5.01;100.00;102407.38;4819410;29;20087;-80
2022/03/25 03:03:11;;;;;;;177.27;75.07;;;;;;;4.96;100.00;102399.72;4808754;29;20412;-79
2022/03/25 03:05:36;;;;;;;163.95;74.40;;;;;;;4.69;100.00;102360.94;4806960;29;20038;-79
2022/03/25 03:08:02;;;;;;;163.63;73.15;;;;;;;4.72;100.00;102375.84;4806597;29;20407;-79
2022/03/25 03:10:29;;;;;;;150.82;70.78;;;;;;;4.76;100.00;102389.78;4806248;29;20454;-80
2022/03/25 03:12:55;;;;;;;149.85;69.20;;;;;;;4.60;100.00;102377.69;4809125;29;20034;-80
2022/03/25 03:15:22;;;;;;;152.18;69.10;;;;;;;4.62;100.00;102377.56;4812425;29;20048;-79
2022/03/25 03:17:48;;;;;;;161.98;70.40;;;;;;;4.52;100.00;102382.78;4815562;29;20099;-79
2022/03/25 03:20:17;;;;;;;166.15;71.07;;;;;;;4.22;100.00;102346.06;4831900;29;20030;-80
2022/03/25 03:22:43;;;;;;;157.43;69.45;;;;;;;4.31;100.00;102384.47;4823408;29;20033;-79
2022/03/25 03:25:10;;;;;;;162.93;69.90;;;;;;;4.23;100.00;102374.38;4808320;29;20105;-79
2022/03/25 03:27:36;;;;;;;170.93;69.95;;;;;;;4.09;100.00;102374.59;4828767;29;20452;-80
2022/03/25 03:30:04;;;;;;;174.57;73.00;;;;;;;4.11;100.00;102384.19;4817609;29;20414;-79
2022/03/25 03:32:29;;;;;;;177.70;71.03;;;;;;;4.03;100.00;102378.59;4808746;29;20031;-80
2022/03/25 03:34:55;;;;;;;161.35;70.38;;;;;;;3.95;100.00;102378.34;4801278;29;20038;-79
2022/03/25 03:37:21;;;;;;;151.57;68.88;;;;;;;3.85;100.00;102364.03;4796893;29;20035;-79
2022/03/25 03:39:47;;;;;;;171.45;71.47;;;;;;;3.87;100.00;102378.91;4810554;29;20483;-79
2022/03/25 03:42:14;;;;;;;145.50;67.45;;;;;;;3.67;100.00;102348.47;4825570;29;20477;-80
2022/03/25 03:44:40;;;;;;;167.07;71.55;;;;;;;3.84;100.00;102373.84;4796647;29;20042;-79
2022/03/25 03:47:06;;;;;;;182.00;74.40;;;;;;;3.84;100.00;102376.50;4822233;29;20128;-80
2022/03/25 03:49:35;;;;;;;168.02;73.15;;;;;;;3.84;100.00;102383.63;4830101;29;20112;-79
2022/03/25 03:52:02;;;;;;;171.05;74.07;;;;;;;3.69;100.00;102351.88;4826937;29;20041;-79
2022/03/25 03:54:28;;;;;;;173.40;73.00;;;;;;;3.76;100.00;102353.09;4846024;29;20600;-79
2022/03/25 03:56:54;;;;;;;176.07;75.18;;;;;;;3.78;100.00;102345.00;4823980;29;20110;-80
2022/03/25 03:59:19;;;;;;;173.63;74.90;;;;;;;3.95;100.00;102373.00;4815900;29;20045;-79
2022/03/25 04:01:45;;;;;;;171.25;74.97;;;;;;;3.90;100.00;102357.38;4829241;29;20034;-79
2022/03/25 04:04:11;;;;;;;170.63;76.40;;;;;;;4.05;100.00;102368.69;4820809;29;20026;-79
2022/03/25 04:06:37;;;;;;;173.60;73.25;;;;;;;4.10;100.00;102370.97;4811447;29;20121;-79
2022/03/25 04:09:02;;;;;;;169.05;75.10;;;;;;;4.08;100.00;102367.59;4838755;29;20472;-80
2022/03/25 04:11:28;;;;;;;172.35;74.85;;;;;;;4.03;100.00;102378.59;4819611;29;20034;-79
2022/03/25 04:13:53;;;;;;;186.50;78.25;;;;;;;4.03;100.00;102378.59;4795150;29;20045;-78
2022/03/25 04:16:20;;;;;;;194.23;79.40;;;;;;;4.00;100.00;102369.00;4807959;29;20026;-79
2022/03/25 04:18:45;;;;;;;192.57;80.05;;;;;;;3.97;100.00;102373.72;4786381;29;20374;-79
2022/03/25 04:21:10;;;;;;;171.20;76.15;;;;;;;3.84;100.00;102344.53;4808726;29;20042;-79
2022/03/25 04:23:36;;;;;;;182.43;77.07;;;;;;;4.02;100.00;102376.91;4814647;29;20038;-80
2022/03/25 04:26:03;;;;;;;192.35;81.28;;;;;;;4.05;100.00;102374.00;4810830;29;20465;-80
2022/03/25 04:28:29;;;;;;;195.35;83.55;;;;;;;4.11;100.00;102373.53;4806675;29;20023;-80
2022/03/25 04:30:54;;;;;;;202.13;85.85;;;;;;;4.05;100.00;102336.72;4809879;29;20389;-80
2022/03/25 04:33:20;;;;;;;213.68;90.68;;;;;;;4.49;100.00;102396.34;4795445;29;20125;-79
2022/03/25 04:35:47;;;;;;;225.75;94.85;;;;;;;4.77;100.00;102396.81;4830413;29;20034;-79
2022/03/25 04:38:14;;;;;;;230.85;98.82;;;;;;;4.76;100.00;102349.78;4844984;29;20080;-79
2022/03/25 04:40:40;;;;;;;226.50;98.38;;;;;;;5.12;100.00;102383.31;4823355;29;20155;-79
2022/03/25 04:43:06;;;;;;;249.00;99.63;;;;;;;5.10;100.00;102361.25;4835546;29;20045;-79
2022/03/25 04:45:31;;;;;;;231.45;100.93;;;;;;;5.34;100.00;102382.41;4844891;29;20029;-79
2022/03/25 04:47:57;;;;;;;214.15;97.63;;;;;;;5.44;100.00;102378.03;4841048;29;20105;-79
2022/03/25 04:50:23;;;;;;;217.13;95.93;;;;;;;5.52;100.00;102380.88;4829760;29;20034;-79
2022/03/25 04:52:49;;;;;;;216.60;95.85;;;;;;;5.50;100.00;102368.66;4828300;29;20033;-79
2022/03/25 04:55:18;;;;;;;223.20;99.75;;;;;;;5.49;100.00;102357.09;4814381;29;20090;-79
2022/03/25 04:57:45;;;;;;;221.77;96.07;;;;;;;5.57;100.00;102376.03;4817049;29;20417;-79
2022/03/25 05:00:11;;;;;;;219.90;99.68;;;;;;;5.51;100.00;102365.00;4820643;29;20030;-79
2022/03/25 05:02:37;;;;;;;216.80;96.97;;;;;;;5.63;100.00;102380.84;4805437;29;20034;-79
2022/03/25 05:05:02;;;;;;;219.52;98.20;;;;;;;5.65;100.00;102386.06;4824925;29;20365;-79
2022/03/25 05:07:28;;;;;;;209.98;95.22;;;;;;;5.59;100.00;102381.22;4817497;29;20033;-80
2022/03/25 05:09:56;;;;;;;196.70;91.50;;;;;;;5.64;100.00;102371.88;4813756;29;20369;-79
2022/03/25 05:12:22;;;;;;;190.52;89.70;;;;;;;5.70;100.00;102357.16;4816554;29;20457;-78
2022/03/25 05:14:47;;;;;;;176.10;84.28;;;;;;;5.66;100.00;102347.69;4798000;29;20061;-79
2022/03/25 05:17:13;;;;;;;188.27;90.22;;;;;;;5.91;100.00;102356.31;4793731;29;20038;-79
2022/03/25 05:19:38;;;;;;;180.20;86.55;;;;;;;5.98;100.00;102355.69;4842976;29;20109;-80
2022/03/25 05:22:04;;;;;;;186.32;88.82;;;;;;;6.00;100.00;102364.44;4843644;29;20083;-79
2022/03/25 05:24:29;;;;;;;169.32;84.18;;;;;;;5.93;100.00;102343.69;4826555;29;20077;-79
2022/03/25 05:26:56;;;;;;;157.70;83.95;;;;;;;6.01;100.00;102346.56;4801732;29;20466;-80
2022/03/25 05:29:22;;;;;;;169.75;86.93;;;;;;;6.19;100.00;102350.34;4812623;29;20022;-80
2022/03/25 05:31:47;;;;;;;162.20;78.50;;;;;;;6.20;100.00;102351.19;4843724;29;20026;-80
2022/03/25 05:34:13;;;;;;;159.95;82.82;;;;;;;6.24;100.00;102357.94;4826869;29;20034;-79
2022/03/25 05:36:38;;;;;;;156.43;80.80;;;;;;;6.29;100.00;102351.22;4824881;29;20121;-80
2022/03/25 05:39:04;;;;;;;154.95;81.95;;;;;;;6.18;100.00;102321.91;4809586;29;20050;-79
2022/03/25 05:41:30;;;;;;;156.48;83.30;;;;;;;6.34;100.00;102340.13;4794013;29;20049;-80
2022/03/25 05:43:55;;;;;;;157.30;82.25;;;;;;;6.37;100.00;102331.84;4825957;29;20076;-82
2022/03/25 05:46:21;;;;;;;152.75;78.88;;;;;;;6.31;100.00;102324.34;4822598;29;20497;-82
2022/03/25 05:48:47;;;;;;;148.52;76.80;;;;;;;6.39;100.00;102321.00;4813946;29;20010;-82
2022/03/25 05:51:13;;;;;;;149.85;79.82;;;;;;;6.49;100.00;102333.44;4830947;29;20118;-82
2022/03/25 05:56:14;;;;;;;160.00;81.43;;;;;;;6.52;100.00;102343.88;5446519;24;20038;-83
2022/03/25 05:58:40;;;;;;;141.60;76.32;;;;;;;5.37;100.00;102158.78;5399404;24;20061;-82
2022/03/25 06:01:09;;;;;;;147.02;78.57;;;;;;;6.64;100.00;102347.28;5369261;24;20055;-79
2022/03/25 06:03:35;;;;;;;134.10;74.95;;;;;;;6.67;100.00;102330.13;4783190;29;20051;-79
2022/03/25 06:06:03;;;;;;;144.35;74.75;;;;;;;6.72;100.00;102328.75;4792046;30;20073;-82
2022/03/25 06:08:29;;;;;;;138.75;77.03;;;;;;;6.67;100.00;102300.69;4777649;30;20356;-83
2022/03/25 06:10:55;;;;;;;137.43;72.82;;;;;;;6.79;100.00;102321.03;4798177;29;20046;-83
2022/03/25 06:13:21;;;;;;;127.93;71.18;;;;;;;5.78;100.00;102157.00;5216936;24;20018;-77
2022/03/25 06:15:47;;;;;;;132.18;72.40;;;;;;;6.85;100.00;102320.44;4980062;24;20058;-82
2022/03/25 06:18:13;;;;;;;132.13;72.45;;;;;;;6.88;100.00;102330.03;4814263;29;20041;-82
2022/03/25 06:20:39;;;;;;;124.07;68.57;;;;;;;5.32;100.00;102054.25;4844732;24;20122;-80
2022/03/25 06:23:05;;;;;;;124.10;68.03;;;;;;;6.41;100.00;102214.78;4823644;29;20026;-83
2022/03/25 06:25:31;;;;;;;129.45;71.13;;;;;;;7.03;100.00;102307.25;4841556;29;20031;-83
2022/03/25 06:28:00;;;;;;;119.07;69.15;;;;;;;5.22;100.00;102026.66;4823501;29;20091;-82
2022/03/25 06:30:31;;;;;;;128.32;70.93;;;;;;;6.39;100.00;102204.22;4820148;29;20030;-81
2022/03/25 06:32:57;;;;;;;121.10;67.30;;;;;;;6.48;100.00;102226.59;4810744;29;20094;-81
2022/03/25 06:35:23;;;;;;;124.90;67.57;;;;;;;6.97;100.00;102310.47;4825124;29;20056;-82
2022/03/25 06:37:49;;;;;;;112.38;61.38;;;;;;;6.17;100.00;102175.03;4801259;29;20030;-81
2022/03/25 06:40:15;;;;;;;120.28;62.70;;;;;;;7.19;100.00;102336.16;4809715;29;20050;-82
2022/03/25 06:42:43;;;;;;;113.82;64.70;;;;;;;7.33;100.00;102329.53;4829693;29;20034;-81
2022/03/25 06:45:10;;;;;;;110.60;62.38;;;;;;;7.43;100.00;102322.34;4828723;29;20069;-82
2022/03/25 06:47:37;;;;;;;110.13;63.13;;;;;;;7.56;100.00;102330.09;4811064;29;20047;-82
2022/03/25 06:50:07;;;;;;;119.15;63.88;;;;;;;7.48;100.00;102323.63;4818158;29;20038;-82
2022/03/25 06:52:33;;;;;;;117.22;64.85;;;;;;;7.44;100.00;102314.16;4802960;29;20045;-81
2022/03/25 06:54:58;;;;;;;113.75;62.80;;;;;;;7.57;100.00;102315.72;4808688;29;20034;-82
2022/03/25 06:57:24;;;;;;;110.68;62.00;;;;;;;7.67;100.00;102319.22;4826325;29;20157;-82
2022/03/25 06:59:50;;;;;;;109.63;64.20;;;;;;;7.77;100.00;102320.06;4797416;29;20038;-80
2022/03/25 07:02:16;;;;;;;114.55;65.93;;;;;;;7.88;100.00;102322.59;4805943;29;20048;-82
2022/03/25 07:04:42;;;;;;;110.38;65.82;;;;;;;8.01;100.00;102314.22;4796480;29;20057;-82
2022/03/25 07:07:09;;;;;;;120.47;64.50;;;;;;;8.07;100.00;102320.84;4795003;29;20107;-82
2022/03/25 07:09:35;;;;;;;105.88;63.38;;;;;;;8.15;100.00;102318.28;4825815;29;20038;-82
2022/03/25 07:12:02;;;;;;;113.32;64.03;;;;;;;8.23;100.00;102321.06;4826356;29;20038;-82
2022/03/25 07:14:28;;;;;;;106.47;64.43;;;;;;;8.34;100.00;102326.25;4811902;29;20030;-82
2022/03/25 07:16:53;;;;;;;109.55;63.67;;;;;;;8.32;100.00;102316.69;4803494;29;20035;-82
2022/03/25 07:19:19;;;;;;;107.28;62.25;;;;;;;8.41;100.00;102314.00;4809458;29;20031;-81
2022/03/25 07:21:44;;;;;;;108.50;62.22;;;;;;;8.37;100.00;102311.69;4819522;29;20161;-82
2022/03/25 07:24:11;;;;;;;110.40;63.88;;;;;;;8.46;100.00;102322.41;4827743;29;20041;-82
2022/03/25 07:26:37;;;;;;;104.28;62.97;;;;;;;8.60;100.00;102314.88;4819682;29;20094;-82
2022/03/25 07:29:02;;;;;;;103.47;61.28;;;;;;;8.66;100.00;102303.53;4794000;29;20483;-82
2022/03/25 07:31:28;;;;;;;105.07;61.40;;;;;;;8.44;100.00;102264.53;4820968;29;20073;-80
2022/03/25 07:33:57;;;;;;;99.13;55.58;;;;;;;8.57;100.00;102291.84;4819769;29;20038;-82
2022/03/25 07:36:25;;;;;;;104.07;58.05;;;;;;;8.63;100.00;102298.47;4819198;29;20042;-82
2022/03/25 07:38:51;;;;;;;92.70;50.47;;;;;;;7.26;100.00;102082.94;4810259;29;20161;-82
2022/03/25 07:41:17;;;;;;;114.05;63.10;;;;;;;8.57;100.00;102302.59;4811150;29;20061;-81
2022/03/25 07:43:43;;;;;;;110.88;64.55;;;;;;;8.65;100.00;102308.06;4825261;29;20042;-82
2022/03/25 07:46:09;;;;;;;112.03;64.38;;;;;;;8.67;100.00;102311.44;4811720;29;20045;-81
2022/03/25 07:48:34;;;;;;;113.28;64.65;;;;;;;8.45;100.00;102293.06;4810338;29;20098;-82
2022/03/25 07:51:00;;;;;;;110.93;65.20;;;;;;;8.55;100.00;102309.13;4810468;29;20035;-82
2022/03/25 07:53:25;;;;;;;104.05;61.00;;;;;;;8.59;100.00;102297.09;4808758;29;20047;-82
2022/03/25 07:55:51;;;;;;;109.90;65.30;;;;;;;8.61;100.00;102309.38;4778962;29;20530;-82
2022/03/25 07:58:21;;;;;;;104.82;62.90;;;;;;;8.68;100.00;102313.13;4793850;29;20038;-81
2022/03/25 08:00:48;;;;;;;104.13;61.72;;;;;;;8.64;100.00;102303.72;4810234;29;20470;-82
2022/03/25 08:03:16;;;;;;;100.75;59.20;;;;;;;8.49;100.00;102267.63;4811184;29;20535;-82
2022/03/25 08:05:42;;;;;;;105.25;60.00;;;;;;;8.72;100.00;102296.75;4810673;29;20038;-82
2022/03/25 08:08:08;;;;;;;98.57;57.72;;;;;;;8.75;100.00;102308.03;4811614;29;20458;-82
2022/03/25 08:10:35;;;;;;;95.85;56.70;;;;;;;8.72;100.00;102320.91;4826079;29;20038;-82
2022/03/25 08:13:01;;;;;;;94.95;55.13;;;;;;;8.71;100.00;102328.09;4832622;29;20035;-80
2022/03/25 08:15:27;;;;;;;95.97;55.63;;;;;;;8.74;100.00;102322.44;4832092;29;20038;-82
2022/03/25 08:18:05;;;;;;;90.80;52.15;;;;;;;8.90;100.00;102340.56;4829020;29;20038;-82
2022/03/25 08:20:37;;;;;;;84.95;49.75;;;;;;;8.90;100.00;102360.19;4829487;29;20066;-82
2022/03/25 08:23:04;;;;;;;87.13;50.83;;;;;;;8.87;100.00;102357.81;4830039;29;20446;-82
2022/03/25 08:28:15;;;;;;;78.07;44.92;;;;;;;8.85;100.00;102367.03;4829952;29;20065;-82
2022/03/25 08:30:42;;;;;;;74.63;40.90;;;;;;;8.69;100.00;102359.59;4827647;29;20070;-82
2022/03/25 08:33:09;;;;;;;72.53;44.35;;;;;;;8.85;100.00;102383.97;4833392;29;20121;-82
2022/03/25 08:35:36;;;;;;;80.80;45.60;;;;;;;8.93;100.00;102393.94;4799888;29;20038;-82
2022/03/25 08:38:02;;;;;;;75.22;43.15;;;;;;;9.00;100.00;102399.56;4815290;29;20061;-82
2022/03/25 08:40:29;;;;;;;73.78;43.47;;;;;;;8.97;100.00;102381.91;4821077;29;20038;-80
2022/03/25 08:42:55;;;;;;;67.93;41.72;;;;;;;8.99;100.00;102390.66;4824999;29;20380;-83
2022/03/25 08:45:22;;;;;;;64.60;40.53;;;;;;;9.11;100.00;102385.94;4814574;29;20075;-82
2022/03/25 08:47:51;;;;;;;62.60;37.88;;;;;;;9.25;100.00;102377.38;4827639;29;20126;-82
2022/03/25 08:50:18;;;;;;;53.95;33.83;;;;;;;9.18;100.00;102378.97;4814123;29;20038;-82
2022/03/25 08:52:45;;;;;;;48.13;28.50;;;;;;;9.23;100.00;102379.34;4815077;29;20073;-81
2022/03/25 08:55:12;;;;;;;65.30;34.55;;;;;;;9.29;100.00;102373.38;4827207;29;20053;-82
2022/03/25 08:57:38;;;;;;;54.60;32.45;;;;;;;9.26;100.00;102365.63;4810545;29;20030;-82
2022/03/25 09:00:08;;;;;;;54.10;33.35;;;;;;;9.22;100.00;102358.03;4801479;29;20035;-83
2022/03/25 09:02:33;;;;;;;52.65;32.50;;;;;;;9.19;100.00;102345.75;4800131;29;20030;-82
2022/03/25 09:04:59;;;;;;;48.70;28.42;;;;;;;9.26;100.00;102352.19;4805575;29;20169;-82
2022/03/25 09:07:25;;;;;;;54.03;30.63;;;;;;;8.88;100.00;102275.44;4814272;29;20035;-82
2022/03/25 09:09:51;;;;;;;49.47;30.35;;;;;;;9.41;100.00;102347.16;4782347;29;20125;-82
2022/03/25 09:12:16;;;;;;;60.60;32.35;;;;;;;9.36;100.00;102344.91;4811203;29;20072;-82
2022/03/25 09:14:41;;;;;;;52.90;30.05;;;;;;;9.20;100.00;102291.03;4815736;29;20420;-82
2022/03/25 09:17:07;;;;;;;51.55;28.02;;;;;;;9.43;100.00;102329.00;4801750;29;20066;-82
2022/03/25 09:19:33;;;;;;;49.08;29.33;;;;;;;9.39;100.00;102317.72;4808323;29;20055;-82
2022/03/25 09:21:58;;;;;;;50.78;28.42;;;;;;;9.39;100.00;102320.41;4824334;29;20058;-82
2022/03/25 09:24:24;;;;;;;50.60;27.50;;;;;;;9.48;100.00;102323.19;4834736;29;20042;-82
2022/03/25 09:26:49;;;;;;;46.88;26.02;;;;;;;9.49;100.00;102304.22;4835340;29;20063;-82
2022/03/25 09:29:15;;;;;;;47.03;27.17;;;;;;;9.57;100.00;102303.41;4806294;29;20037;-81
2022/03/25 09:31:42;;;;;;;50.58;27.05;;;;;;;9.64;100.00;102323.31;4787397;29;20462;-81
2022/03/25 09:36:54;;;;;;;37.22;20.73;;;;;;;9.67;100.00;102319.47;4836888;29;20068;-82
2022/03/25 09:39:19;;;;;;;38.67;22.50;;;;;;;9.63;100.00;102298.31;4797331;29;20031;-83
2022/03/25 09:41:46;;;;;;;39.33;22.48;;;;;;;9.78;100.00;102328.13;4823542;29;20093;-82
2022/03/25 09:44:15;;;;;;;46.92;24.38;;;;;;;9.95;100.00;102334.47;4805500;29;20042;-83
2022/03/25 09:46:42;;;;;;;38.92;21.58;;;;;;;9.93;100.00;102344.53;4818856;29;20473;-81
2022/03/25 09:49:11;;;;;;;40.58;20.13;;;;;;;9.94;100.00;102343.53;4844272;29;20030;-82
2022/03/25 09:51:38;;;;;;;49.13;22.70;;;;;;;9.93;100.00;102331.09;4815319;29;20026;-82
2022/03/25 09:54:06;;;;;;;43.47;21.98;;;;;;;9.71;100.00;102308.25;4846904;29;20030;-83
2022/03/25 09:56:32;;;;;;;41.42;20.63;;;;;;;9.97;100.00;102337.00;4847308;29;20029;-83
2022/03/25 09:58:59;;;;;;;36.88;19.27;;;;;;;9.82;100.00;102326.81;4845692;29;20010;-82
2022/03/25 10:01:25;;;;;;;42.33;20.55;;;;;;;9.90;100.00;102334.13;4831263;29;20034;-83
2022/03/25 10:03:51;;;;;;;44.58;19.83;;;;;;;9.78;100.00;102335.34;4816769;29;20034;-82
2022/03/25 10:06:17;;;;;;;46.30;21.60;;;;;;;9.53;100.00;102308.28;4809700;29;20043;-82
2022/03/25 10:08:44;;;;;;;45.63;21.30;;;;;;;9.72;100.00;102334.13;4791409;29;20026;-82
2022/03/25 10:11:26;;;;;;;41.50;17.77;;;;;;;9.46;100.00;102307.19;4813508;29;20086;-82
2022/03/25 10:14:14;;;;;;;51.20;21.52;;;;;;;9.69;100.00;102339.81;4792252;29;20049;-82
2022/03/25 10:16:40;;;;;;;45.33;20.25;;;;;;;9.57;100.00;102331.16;4830802;29;20022;-82
2022/03/25 10:19:24;;;;;;;42.20;20.70;;;;;;;9.32;100.00;102316.66;4833862;29;20492;-81
2022/03/25 10:22:00;;;;;;;42.65;20.75;;;;;;;9.38;100.00;102336.69;4831267;29;20058;-83
2022/03/25 10:24:40;;;;;;;43.83;19.98;;;;;;;9.25;100.00;102342.44;4833402;29;20034;-82
2022/03/25 10:27:07;;;;;;;45.25;21.00;;;;;;;9.16;100.00;102356.78;4817134;29;20038;-81
2022/03/25 10:29:35;;;;;;;49.42;21.85;;;;;;;8.90;100.00;102327.97;4800921;29;20042;-83
2022/03/25 10:32:09;;;;;;;49.10;21.50;;;;;;;9.15;100.00;102341.69;4831400;29;20049;-82
2022/03/25 10:34:39;;;;;;;45.50;21.17;;;;;;;9.10;100.00;102343.97;4829172;29;20034;-82
2022/03/25 10:37:09;;;;;;;48.63;21.50;;;;;;;8.93;100.00;102338.41;4803625;29;20122;-82
2022/03/25 10:39:35;;;;;;;44.15;22.02;;;;;;;8.84;100.00;102350.06;4814048;29;20027;-82
2022/03/25 10:42:04;;;;;;;47.15;22.10;;;;;;;8.77;100.00;102354.31;4822572;29;20044;-82
2022/03/25 10:44:41;;;;;;;46.70;20.92;;;;;;;8.79;100.00;102346.13;4814985;29;20026;-83
2022/03/25 10:47:16;;;;;;;45.17;21.38;;;;;;;8.75;100.00;102350.97;4796748;29;20046;-82
2022/03/25 10:49:46;;;;;;;37.08;20.60;;;;;;;8.58;100.00;102341.88;4812421;29;20094;-83
2022/03/25 10:52:36;;;;;;;41.35;19.50;;;;;;;8.64;100.00;102359.19;4822650;29;20019;-83
2022/03/25 10:55:19;;;;;;;46.08;20.48;;;;;;;8.63;100.00;102352.16;4817532;29;20030;-80
2022/03/25 10:57:50;;;;;;;39.00;18.98;;;;;;;8.60;100.00;102364.00;4817415;29;20086;-80
2022/03/25 11:00:16;;;;;;;44.63;18.98;;;;;;;8.55;100.00;102366.31;4819927;29;20282;-82
2022/03/25 11:02:43;;;;;;;41.75;19.30;;;;;;;8.54;100.00;102363.75;4798687;29;20054;-83
2022/03/25 11:05:10;;;;;;;45.15;19.27;;;;;;;8.54;100.00;102369.13;4798169;29;20026;-81
2022/03/25 11:07:40;;;;;;;40.80;19.42;;;;;;;8.56;100.00;102364.47;4797378;29;20035;-82
2022/03/25 11:10:06;;;;;;;42.80;19.55;;;;;;;8.32;100.00;102330.94;4794549;29;20047;-82